createdAt,value
2022-11-25T00:00:54.947Z,30.23
2022-11-25T00:03:21.629Z,27.77
2022-11-25T00:05:48.986Z,26.83
2022-11-25T00:08:15.602Z,23.80
2022-11-25T00:10:42.854Z,37.10
2022-11-25T00:13:09.474Z,39.97
2022-11-25T00:15:36.847Z,31.27
2022-11-25T00:18:03.502Z,32.03
2022-11-25T00:20:30.783Z,27.88
2022-11-25T00:22:57.386Z,36.83
2022-11-25T00:25:24.631Z,27.30
2022-11-25T00:27:52.891Z,30.48
2022-11-25T00:30:20.335Z,36.13
2022-11-25T00:32:47.023Z,28.63
2022-11-25T00:35:14.330Z,31.27
2022-11-25T00:37:40.940Z,24.90
2022-11-25T00:40:08.940Z,27.05
2022-11-25T00:42:54.007Z,26.95
2022-11-25T00:45:21.311Z,31.45
2022-11-25T00:47:47.907Z,23.10
2022-11-25T00:50:18.444Z,32.83
2022-11-25T00:52:45.085Z,26.92
2022-11-25T00:55:12.572Z,26.27
2022-11-25T00:57:39.161Z,29.10
2022-11-25T01:00:07.436Z,30.13
2022-11-25T01:02:34.097Z,27.52
2022-11-25T01:05:01.460Z,33.78
2022-11-25T01:07:28.097Z,32.97
2022-11-25T01:09:55.984Z,28.67
2022-11-25T01:12:24.525Z,30.30
2022-11-25T01:14:51.781Z,25.35
2022-11-25T01:17:18.379Z,34.72
2022-11-25T01:19:45.811Z,29.67
2022-11-25T01:22:12.549Z,30.23
2022-11-25T01:24:42.542Z,22.40
2022-11-25T01:27:09.794Z,27.50
2022-11-25T01:29:36.385Z,29.88
2022-11-25T01:32:03.852Z,29.70
2022-11-25T01:34:32.361Z,32.42
2022-11-25T01:37:00.167Z,29.65
2022-11-25T01:39:31.943Z,30.15
2022-11-25T01:42:01.287Z,26.38
2022-11-25T01:44:30.371Z,31.15
2022-11-25T01:47:12.942Z,29.48
2022-11-25T01:49:49.062Z,30.33
2022-11-25T01:52:28.306Z,30.92
2022-11-25T01:55:05.284Z,26.75
2022-11-25T01:57:39.513Z,23.42
2022-11-25T02:00:09.236Z,25.35
2022-11-25T02:02:49.694Z,25.85
2022-11-25T02:05:35.691Z,29.13
2022-11-25T02:08:05.475Z,27.20
2022-11-25T02:10:33.583Z,25.13
2022-11-25T02:13:03.379Z,37.22
2022-11-25T02:15:33.231Z,26.15
2022-11-25T02:18:00.519Z,30.33
2022-11-25T02:20:27.619Z,27.02
2022-11-25T02:23:25.831Z,24.00
2022-11-25T02:25:54.784Z,38.15
2022-11-25T02:28:27.774Z,37.00
2022-11-25T02:30:54.720Z,33.88
2022-11-25T02:33:23.753Z,26.40
2022-11-25T02:35:56.700Z,25.65
2022-11-25T02:38:44.396Z,28.60
2022-11-25T02:41:19.474Z,23.75
2022-11-25T02:43:51.265Z,25.33
2022-11-25T02:46:23.303Z,22.48
2022-11-25T02:51:44.659Z,20.52
2022-11-25T02:54:14.221Z,21.20
2022-11-25T02:56:41.678Z,21.23
2022-11-25T02:59:09.423Z,23.00
2022-11-25T03:01:38.293Z,25.50
2022-11-25T03:04:07.694Z,34.03
2022-11-25T03:06:35.219Z,27.95
2022-11-25T03:09:02.536Z,27.50
2022-11-25T03:11:49.042Z,33.08
2022-11-25T03:14:15.822Z,26.92
2022-11-25T03:16:43.669Z,19.23
2022-11-25T03:19:11.119Z,24.73
2022-11-25T03:21:37.799Z,29.10
2022-11-25T03:24:05.483Z,27.88
2022-11-25T03:26:32.200Z,30.70
2022-11-25T03:28:59.495Z,41.45
2022-11-25T03:31:27.021Z,29.77
2022-11-25T03:33:55.892Z,29.15
2022-11-25T03:36:22.588Z,25.83
2022-11-25T03:38:50.045Z,33.50
2022-11-25T03:41:17.304Z,25.15
2022-11-25T03:43:44.586Z,25.45
2022-11-25T03:46:11.588Z,27.20
2022-11-25T03:48:39.137Z,25.38
2022-11-25T03:51:07.566Z,33.92
2022-11-25T03:53:35.416Z,29.27
2022-11-25T03:56:04.740Z,39.13
2022-11-25T03:58:32.306Z,26.25
2022-11-25T04:01:03.468Z,17.23
2022-11-25T04:03:31.596Z,26.23
2022-11-25T04:05:58.916Z,29.80
2022-11-25T04:08:27.561Z,29.85
2022-11-25T04:10:55.013Z,26.17
2022-11-25T04:13:25.262Z,25.50
2022-11-25T04:15:52.729Z,21.60
2022-11-25T04:18:21.582Z,28.48
2022-11-25T04:20:52.005Z,24.13
2022-11-25T04:23:19.429Z,29.73
2022-11-25T04:26:00.023Z,27.30
2022-11-25T04:28:34.658Z,36.60
2022-11-25T04:31:06.279Z,29.00
2022-11-25T04:33:34.374Z,34.45
2022-11-25T04:36:01.378Z,35.28
2022-11-25T04:38:29.326Z,28.35
2022-11-25T04:40:58.179Z,33.65
2022-11-25T04:43:27.739Z,27.30
2022-11-25T04:46:13.984Z,32.75
2022-11-25T04:48:44.820Z,31.20
2022-11-25T04:51:11.840Z,36.03
2022-11-25T04:53:40.223Z,32.78
2022-11-25T04:56:11.603Z,31.70
2022-11-25T04:59:02.245Z,25.08
2022-11-25T05:01:29.693Z,32.75
2022-11-25T05:04:06.068Z,33.83
2022-11-25T05:06:34.037Z,34.58
2022-11-25T05:09:01.637Z,36.03
2022-11-25T05:11:28.580Z,32.10
2022-11-25T05:13:56.012Z,31.92
2022-11-25T05:16:22.774Z,30.98
2022-11-25T05:18:50.131Z,22.52
2022-11-25T05:21:16.890Z,23.58
2022-11-25T05:23:44.808Z,31.80
2022-11-25T05:26:11.618Z,36.67
2022-11-25T05:28:44.673Z,33.35
2022-11-25T05:31:12.123Z,32.35
2022-11-25T05:33:39.676Z,34.65
2022-11-25T05:36:08.277Z,28.20
2022-11-25T05:38:41.913Z,25.58
2022-11-25T05:41:11.671Z,24.05
2022-11-25T05:43:40.733Z,36.90
2022-11-25T05:46:08.245Z,26.65
2022-11-25T05:48:38.478Z,31.42
2022-11-25T05:51:06.720Z,34.22
2022-11-25T05:53:34.057Z,32.58
2022-11-25T05:56:04.590Z,22.58
2022-11-25T05:58:50.662Z,23.77
2022-11-25T06:01:17.755Z,21.02
2022-11-25T06:03:46.325Z,29.85
2022-11-25T06:06:15.026Z,29.15
2022-11-25T06:08:43.359Z,20.77
2022-11-25T06:11:13.727Z,22.45
2022-11-25T06:13:42.060Z,27.45
2022-11-25T06:16:15.164Z,18.77
2022-11-25T06:18:44.600Z,21.27
2022-11-25T06:21:12.555Z,20.55
2022-11-25T06:23:40.184Z,20.98
2022-11-25T06:26:14.715Z,21.80
2022-11-25T06:28:42.017Z,17.08
2022-11-25T06:31:11.442Z,19.45
2022-11-25T06:33:51.308Z,18.38
2022-11-25T06:36:19.623Z,20.55
2022-11-25T06:38:53.101Z,17.77
2022-11-25T06:41:23.387Z,23.55
2022-11-25T06:43:51.251Z,25.20
2022-11-25T06:46:24.518Z,22.25
2022-11-25T06:48:53.589Z,25.70
2022-11-25T06:51:20.493Z,31.27
2022-11-25T06:53:47.789Z,32.78
2022-11-25T06:56:18.329Z,31.70
2022-11-25T06:58:47.063Z,34.65
2022-11-25T07:01:22.851Z,34.42
2022-11-25T07:03:53.121Z,40.30
2022-11-25T07:06:20.554Z,25.10
2022-11-25T07:08:48.865Z,42.42
2022-11-25T07:11:18.648Z,27.48
2022-11-25T07:13:46.946Z,25.35
2022-11-25T07:16:14.503Z,29.58
2022-11-25T07:18:42.269Z,27.48
2022-11-25T07:21:15.156Z,27.65
2022-11-25T07:23:43.991Z,31.95
2022-11-25T07:26:14.692Z,30.05
2022-11-25T07:28:43.593Z,28.23
2022-11-25T07:31:23.814Z,23.70
2022-11-25T07:33:54.008Z,21.60
2022-11-25T07:36:21.344Z,23.33
2022-11-25T07:38:49.044Z,41.25
2022-11-25T07:41:18.449Z,26.25
2022-11-25T07:43:48.053Z,34.17
2022-11-25T07:46:26.257Z,26.10
2022-11-25T07:48:56.132Z,28.13
2022-11-25T07:51:26.410Z,32.28
2022-11-25T07:53:56.105Z,49.75
2022-11-25T07:56:23.595Z,35.22
2022-11-25T07:58:51.236Z,28.90
2022-11-25T08:01:19.176Z,37.35
2022-11-25T08:03:48.298Z,34.45
2022-11-25T08:06:17.975Z,26.88
2022-11-25T08:08:46.335Z,34.00
2022-11-25T08:11:15.997Z,26.20
2022-11-25T08:13:43.961Z,33.03
2022-11-25T08:16:13.703Z,26.10
2022-11-25T08:18:41.458Z,24.48
2022-11-25T08:21:10.342Z,29.45
2022-11-25T08:23:38.934Z,30.98
2022-11-25T08:26:12.434Z,30.25
2022-11-25T08:28:41.498Z,23.05
2022-11-25T08:31:15.207Z,21.35
2022-11-25T08:33:43.585Z,35.22
2022-11-25T08:36:11.033Z,27.88
2022-11-25T08:38:38.454Z,34.40
2022-11-25T08:41:11.239Z,29.10
2022-11-25T08:43:39.041Z,32.30
2022-11-25T08:46:14.577Z,27.27
2022-11-25T08:48:43.287Z,28.35
2022-11-25T08:51:22.344Z,26.73
2022-11-25T08:53:51.159Z,27.55
2022-11-25T08:56:22.829Z,31.35
2022-11-25T08:58:53.028Z,22.75
2022-11-25T09:01:20.282Z,33.45
2022-11-25T09:03:50.147Z,20.77
2022-11-25T09:06:17.671Z,22.88
2022-11-25T09:08:45.612Z,29.98
2022-11-25T09:11:12.700Z,29.75
2022-11-25T09:13:40.902Z,24.40
2022-11-25T09:16:09.432Z,29.13
2022-11-25T09:18:37.957Z,25.40
2022-11-25T09:21:14.557Z,21.65
2022-11-25T09:23:42.183Z,20.65
2022-11-25T09:26:21.818Z,18.33
2022-11-25T09:28:49.133Z,17.92
2022-11-25T09:31:15.863Z,17.00
2022-11-25T09:33:43.530Z,23.42
2022-11-25T09:36:12.589Z,21.10
2022-11-25T09:38:43.278Z,20.52
2022-11-25T09:41:49.854Z,33.42
2022-11-25T09:45:10.322Z,26.50
2022-11-25T09:47:48.205Z,22.58
2022-11-25T09:50:57.658Z,25.42
2022-11-25T09:53:53.162Z,26.02
2022-11-25T09:56:33.614Z,18.90
2022-11-25T09:59:21.069Z,16.27
2022-11-25T10:01:53.273Z,23.17
2022-11-25T10:04:29.318Z,25.38
2022-11-25T10:07:01.231Z,24.95
2022-11-25T10:09:34.195Z,22.05
2022-11-25T10:12:13.395Z,24.95
2022-11-25T10:14:46.383Z,17.60
2022-11-25T10:17:44.990Z,19.02
2022-11-25T10:20:23.895Z,22.10
2022-11-25T10:23:01.856Z,26.15
2022-11-25T10:25:34.244Z,23.45
2022-11-25T10:28:16.416Z,26.87
2022-11-25T10:31:10.425Z,16.48
2022-11-25T10:33:45.721Z,27.17
2022-11-25T10:36:34.264Z,25.55
2022-11-25T10:39:10.285Z,24.63
2022-11-25T10:41:50.496Z,21.08
2022-11-25T10:44:28.323Z,23.83
2022-11-25T10:47:25.864Z,22.52
2022-11-25T10:50:27.921Z,17.13
2022-11-25T10:53:01.858Z,24.25
2022-11-25T10:55:36.724Z,27.95
2022-11-25T10:58:34.709Z,21.20
2022-11-25T11:01:04.408Z,20.15
2022-11-25T11:03:31.618Z,20.85
2022-11-25T11:05:58.913Z,22.52
2022-11-25T11:08:40.426Z,18.00
2022-11-25T11:11:09.988Z,27.92
2022-11-25T11:13:37.190Z,26.58
2022-11-25T11:16:04.739Z,20.45
2022-11-25T11:18:37.401Z,24.73
2022-11-25T11:23:51.186Z,27.33
2022-11-25T11:26:23.639Z,24.90
2022-11-25T11:28:58.960Z,23.90
2022-11-25T11:31:36.190Z,19.95
2022-11-25T11:34:06.279Z,24.48
2022-11-25T11:36:53.203Z,18.67
2022-11-25T11:39:52.311Z,19.55
2022-11-25T11:42:32.795Z,18.90
2022-11-25T11:45:23.386Z,23.00
2022-11-25T11:48:24.227Z,17.77
2022-11-25T11:50:57.635Z,20.13
2022-11-25T11:53:49.109Z,27.70
2022-11-25T11:56:38.361Z,17.63
2022-11-25T11:59:35.943Z,19.35
2022-11-25T12:02:31.709Z,21.42
2022-11-25T12:05:10.722Z,26.08
2022-11-25T12:07:45.759Z,21.10
2022-11-25T12:10:35.064Z,22.30
2022-11-25T12:13:16.665Z,25.60
2022-11-25T12:16:06.519Z,20.67
2022-11-25T12:18:50.836Z,24.98
2022-11-25T12:22:03.808Z,24.10
2022-11-25T12:24:59.821Z,20.90
2022-11-25T12:27:33.793Z,20.30
2022-11-25T12:30:13.861Z,29.27
2022-11-25T12:32:50.827Z,21.10
2022-11-25T12:35:21.168Z,21.67
2022-11-25T12:37:47.811Z,22.73
2022-11-25T12:40:27.044Z,20.08
2022-11-25T12:43:03.877Z,24.25
2022-11-25T12:45:31.314Z,19.10
2022-11-25T12:47:57.945Z,24.30
2022-11-25T12:50:51.107Z,23.33
2022-11-25T12:53:48.166Z,16.13
2022-11-25T12:56:21.741Z,25.25
2022-11-25T12:59:30.336Z,21.90
2022-11-25T13:02:09.641Z,19.65
2022-11-25T13:04:48.906Z,22.10
2022-11-25T13:07:37.256Z,14.90
2022-11-25T13:10:04.534Z,10.15
2022-11-25T13:12:59.211Z,22.33
2022-11-25T13:15:47.878Z,17.48
2022-11-25T13:18:19.081Z,15.00
2022-11-25T13:20:52.089Z,21.60
2022-11-25T13:23:18.659Z,18.17
2022-11-25T13:25:48.519Z,16.63
2022-11-25T13:28:27.411Z,16.77
2022-11-25T13:30:55.428Z,15.95
2022-11-25T13:33:25.029Z,9.80
2022-11-25T13:35:56.706Z,15.75
2022-11-25T13:38:29.341Z,13.07
2022-11-25T13:43:28.542Z,19.48
2022-11-25T13:45:56.716Z,16.92
2022-11-25T13:48:29.876Z,22.45
2022-11-25T13:51:20.608Z,17.90
2022-11-25T13:54:00.982Z,15.73
2022-11-25T13:56:38.200Z,16.58
2022-11-25T13:59:35.903Z,16.08
2022-11-25T14:02:29.264Z,13.93
2022-11-25T14:05:18.571Z,10.10
2022-11-25T14:08:10.118Z,15.43
2022-11-25T14:11:17.965Z,18.08
2022-11-25T14:14:24.011Z,14.27
2022-11-25T14:16:59.559Z,15.77
2022-11-25T14:19:52.655Z,15.95
2022-11-25T14:22:35.575Z,22.58
2022-11-25T14:25:17.189Z,13.73
2022-11-25T14:27:50.529Z,17.60
2022-11-25T14:30:18.609Z,14.60
2022-11-25T14:32:59.561Z,15.93
2022-11-25T14:35:54.157Z,25.17
2022-11-25T14:38:29.402Z,12.18
2022-11-25T14:41:03.290Z,19.40
2022-11-25T14:43:34.594Z,25.42
2022-11-25T14:46:23.498Z,24.70
2022-11-25T14:49:00.031Z,18.08
2022-11-25T14:51:34.664Z,17.58
2022-11-25T14:54:10.836Z,19.38
2022-11-25T14:56:39.128Z,13.57
2022-11-25T14:59:08.925Z,14.63
2022-11-25T15:01:37.818Z,14.55
2022-11-25T15:04:07.823Z,23.48
2022-11-25T15:06:37.417Z,13.10
2022-11-25T15:09:15.853Z,13.88
2022-11-25T15:11:43.537Z,19.38
2022-11-25T15:14:26.720Z,20.42
2022-11-25T15:19:26.971Z,18.15
2022-11-25T15:22:23.117Z,27.10
2022-11-25T15:24:54.507Z,20.17
2022-11-25T15:27:27.511Z,30.60
2022-11-25T15:29:56.875Z,19.80
2022-11-25T15:32:29.018Z,16.70
2022-11-25T15:34:58.399Z,23.33
2022-11-25T15:37:25.379Z,16.20
2022-11-25T15:40:39.403Z,11.20
2022-11-25T15:43:19.228Z,13.35
2022-11-25T15:45:49.785Z,11.98
2022-11-25T15:48:25.324Z,13.52
2022-11-25T15:50:52.035Z,21.05
2022-11-25T15:53:31.651Z,15.52
2022-11-25T15:56:01.610Z,15.40
2022-11-25T15:58:29.270Z,21.45
2022-11-25T16:01:15.727Z,15.65
2022-11-25T16:03:44.080Z,20.10
2022-11-25T16:06:27.723Z,15.10
2022-11-25T16:08:57.048Z,15.75
2022-11-25T16:11:25.409Z,17.08
2022-11-25T16:13:53.665Z,14.68
2022-11-25T16:16:21.888Z,12.43
2022-11-25T16:19:08.065Z,17.90
2022-11-25T16:21:40.525Z,17.58
2022-11-25T16:24:13.659Z,18.40
2022-11-25T16:26:54.348Z,16.17
2022-11-25T16:29:30.872Z,12.05
2022-11-25T16:31:58.209Z,16.92
2022-11-25T16:34:26.843Z,14.45
2022-11-25T16:36:53.925Z,22.48
2022-11-25T16:39:21.194Z,15.57
2022-11-25T16:42:02.336Z,22.33
2022-11-25T16:44:30.226Z,32.45
2022-11-25T16:46:57.901Z,40.50
2022-11-25T16:49:28.906Z,34.42
2022-11-25T16:51:55.583Z,35.03
2022-11-25T16:54:23.573Z,31.50
2022-11-25T16:56:52.711Z,36.85
2022-11-25T16:59:30.807Z,36.92
2022-11-25T17:01:58.630Z,33.95
2022-11-25T17:04:25.752Z,46.17
2022-11-25T17:07:24.204Z,43.95
2022-11-25T17:09:40.129Z,27.73
2022-11-25T17:12:14.587Z,38.90
2022-11-25T17:14:41.772Z,42.58
2022-11-25T17:17:13.425Z,24.60
2022-11-25T17:19:40.861Z,59.53
2022-11-25T17:22:21.316Z,42.38
2022-11-25T17:24:48.595Z,33.75
2022-11-25T17:27:30.729Z,18.13
2022-11-25T17:30:00.692Z,27.75
2022-11-25T17:32:27.830Z,24.38
2022-11-25T17:34:54.836Z,22.38
2022-11-25T17:37:23.937Z,28.42
2022-11-25T17:39:53.289Z,29.75
2022-11-25T17:42:25.221Z,28.27
2022-11-25T17:44:54.240Z,23.50
2022-11-25T17:47:21.280Z,23.23
2022-11-25T17:49:49.664Z,31.33
2022-11-25T17:52:16.427Z,31.67
2022-11-25T17:54:43.465Z,24.60
2022-11-25T17:57:17.115Z,28.80
2022-11-25T17:59:44.282Z,28.35
2022-11-25T18:02:21.948Z,28.92
2022-11-25T18:04:49.915Z,25.02
2022-11-25T18:07:16.977Z,29.60
2022-11-25T18:09:44.337Z,33.05
2022-11-25T18:12:19.662Z,26.67
2022-11-25T18:14:46.775Z,23.30
2022-11-25T18:17:18.924Z,26.75
2022-11-25T18:19:51.467Z,34.05
2022-11-25T18:22:23.823Z,29.27
2022-11-25T18:24:51.282Z,28.98
2022-11-25T18:27:24.718Z,32.15
2022-11-25T18:29:52.496Z,34.22
2022-11-25T18:32:19.902Z,30.70
2022-11-25T18:34:47.240Z,29.55
2022-11-25T18:37:13.860Z,27.33
2022-11-25T18:39:40.847Z,34.85
2022-11-25T18:42:10.160Z,35.10
2022-11-25T18:44:41.962Z,35.42
2022-11-25T18:47:12.580Z,35.73
2022-11-25T18:49:39.702Z,35.40
2022-11-25T18:52:06.392Z,35.53
2022-11-25T18:54:33.324Z,33.25
2022-11-25T18:57:00.069Z,32.85
2022-11-25T18:59:34.108Z,37.83
2022-11-25T19:02:01.130Z,26.52
2022-11-25T19:04:28.589Z,37.97
2022-11-25T19:06:55.542Z,45.63
2022-11-25T19:09:22.128Z,30.42
2022-11-25T19:11:54.610Z,36.00
2022-11-25T19:14:35.834Z,38.80
2022-11-25T19:17:07.654Z,40.35
2022-11-25T19:19:36.353Z,35.00
2022-11-25T19:22:10.021Z,40.20
2022-11-25T19:24:36.914Z,44.03
2022-11-25T19:27:04.449Z,55.90
2022-11-25T19:29:42.186Z,44.05
2022-11-25T19:32:26.792Z,45.10
2022-11-25T19:34:59.421Z,42.28
2022-11-25T19:37:27.267Z,43.90
2022-11-25T19:39:54.231Z,35.67
2022-11-25T19:42:22.539Z,31.25
2022-11-25T19:44:49.154Z,52.78
2022-11-25T19:47:22.026Z,50.45
2022-11-25T19:49:50.863Z,37.33
2022-11-25T19:52:21.275Z,46.75
2022-11-25T19:54:48.067Z,51.13
2022-11-25T19:57:17.907Z,42.58
2022-11-25T19:59:44.748Z,40.65
2022-11-25T20:02:20.754Z,48.17
2022-11-25T20:04:50.347Z,42.63
2022-11-25T20:07:19.414Z,42.85
2022-11-25T20:09:47.389Z,34.95
2022-11-25T20:12:25.715Z,50.60
2022-11-25T20:14:58.798Z,44.53
2022-11-25T20:17:34.520Z,49.30
2022-11-25T20:20:11.461Z,47.80
2022-11-25T20:22:42.247Z,43.58
2022-11-25T20:25:12.617Z,51.17
2022-11-25T20:27:39.588Z,52.30
2022-11-25T20:30:21.912Z,53.78
2022-11-25T20:32:48.848Z,50.15
2022-11-25T20:35:16.373Z,56.88
2022-11-25T20:38:00.326Z,40.80
2022-11-25T20:40:33.673Z,39.95
2022-11-25T20:45:27.677Z,43.70
2022-11-25T20:47:54.406Z,41.70
2022-11-25T20:50:21.969Z,38.20
2022-11-25T20:52:50.231Z,48.83
2022-11-25T20:55:20.590Z,46.30
2022-11-25T20:57:47.822Z,44.80
2022-11-25T21:00:16.651Z,45.92
2022-11-25T21:02:43.346Z,47.80
2022-11-25T21:05:10.438Z,52.45
2022-11-25T21:07:37.274Z,70.72
2022-11-25T21:10:20.210Z,77.07
2022-11-25T21:12:47.366Z,58.88
2022-11-25T21:15:17.267Z,65.00
2022-11-25T21:17:44.256Z,53.75
2022-11-25T21:20:12.655Z,52.83
2022-11-25T21:22:41.863Z,46.85
2022-11-25T21:25:16.940Z,47.42
2022-11-25T21:27:44.925Z,47.92
2022-11-25T21:30:27.407Z,52.78
2022-11-25T21:32:55.985Z,43.23
2022-11-25T21:35:30.499Z,48.13
2022-11-25T21:37:57.587Z,49.75
2022-11-25T21:40:31.508Z,56.60
2022-11-25T21:42:59.300Z,47.63
2022-11-25T21:45:26.248Z,45.88
2022-11-25T21:47:53.006Z,53.70
2022-11-25T21:50:20.669Z,56.47
2022-11-25T21:52:47.393Z,67.03
2022-11-25T21:55:16.473Z,48.75
2022-11-25T21:57:43.365Z,53.83
2022-11-25T22:00:23.744Z,60.67
2022-11-25T22:02:50.811Z,54.65
2022-11-25T22:05:20.873Z,49.00
2022-11-25T22:07:47.912Z,61.75
2022-11-25T22:10:16.666Z,58.35
2022-11-25T22:12:46.431Z,49.33
2022-11-25T22:15:21.402Z,51.90
2022-11-25T22:17:51.143Z,51.13
2022-11-25T22:20:27.227Z,55.90
2022-11-25T22:22:54.626Z,46.92
2022-11-25T22:25:24.710Z,57.03
2022-11-25T22:27:51.797Z,54.03
2022-11-25T22:30:21.945Z,58.40
2022-11-25T22:33:10.425Z,64.13
2022-11-25T22:35:37.818Z,57.65
2022-11-25T22:38:13.387Z,56.03
2022-11-25T22:40:49.902Z,54.55
2022-11-25T22:43:29.978Z,54.28
2022-11-25T22:45:57.585Z,53.90
2022-11-25T22:48:31.248Z,58.53
2022-11-25T22:50:58.628Z,54.75
2022-11-25T22:53:26.037Z,56.50
2022-11-25T22:56:00.213Z,55.22
2022-11-25T22:58:27.488Z,53.08
2022-11-25T23:00:56.639Z,56.72
2022-11-25T23:03:26.942Z,56.95
2022-11-25T23:05:54.508Z,61.10
2022-11-25T23:08:23.883Z,68.80
2022-11-25T23:10:52.940Z,70.55
2022-11-25T23:13:22.939Z,62.17
2022-11-25T23:15:53.403Z,67.68
2022-11-25T23:18:34.017Z,55.80
2022-11-25T23:21:05.320Z,58.75
2022-11-25T23:23:32.165Z,61.47
2022-11-25T23:25:59.799Z,52.55
2022-11-25T23:28:26.505Z,66.40
2022-11-25T23:30:58.722Z,73.63
2022-11-25T23:33:48.791Z,62.20
2022-11-25T23:36:18.040Z,72.82
2022-11-25T23:38:50.299Z,54.35
2022-11-25T23:41:24.142Z,56.67
2022-11-25T23:43:51.317Z,47.58
2022-11-25T23:46:22.938Z,60.67
2022-11-25T23:48:56.391Z,70.72
2022-11-25T23:51:24.689Z,57.47
2022-11-25T23:53:51.927Z,54.83
2022-11-25T23:56:19.548Z,60.85
2022-11-25T23:58:46.565Z,50.60
